Time,TemperatureF,DewpointF,PressureIn,WindDirection,WindDirectionDegrees,WindSpeedMPH,WindSpeedGustMPH,Humidity,HourlyPrecipIn,Conditions,Clouds,dailyrainin,SolarRadiationWatts/m^2,SoftwareType,DateUTC
2013-02-06 00:02:00,38.0,29.0,-100.00,WNW,284,5.0,12.0,71,0.00,,,0.00,0.000000,,2013-02-06 05:02:00,
2013-02-06 00:12:00,38.0,29.0,-100.00,WNW,284,5.0,12.0,71,0.00,,,0.00,0.000000,,2013-02-06 05:12:00,
2013-02-06 00:42:00,39.0,30.0,-100.00,West,276,5.0,12.0,69,0.00,,,0.00,0.000000,,2013-02-06 05:42:00,
2013-02-06 00:53:00,39.0,30.0,-100.00,West,276,5.0,12.0,69,0.00,,,0.00,0.000000,,2013-02-06 05:53:00,
2013-02-06 01:01:00,39.0,30.0,-100.00,West,276,5.0,12.0,69,0.00,,,0.00,0.000000,,2013-02-06 06:01:00,
2013-02-06 01:11:00,39.0,30.0,-100.00,West,276,5.0,12.0,69,0.00,,,0.00,0.000000,,2013-02-06 06:11:00,
2013-02-06 01:32:00,39.0,30.0,-100.00,NNW,329,3.0,11.0,71,0.00,,,0.00,0.000000,,2013-02-06 06:32:00,
2013-02-06 01:42:00,39.0,30.0,-100.00,NNW,329,3.0,11.0,71,0.00,,,0.00,0.000000,,2013-02-06 06:42:00,
2013-02-06 01:52:00,39.0,30.0,-100.00,NNW,329,3.0,11.0,71,0.00,,,0.00,0.000000,,2013-02-06 06:52:00,
2013-02-06 02:02:00,39.0,30.0,-100.00,NNW,329,3.0,11.0,71,0.00,,,0.00,0.000000,,2013-02-06 07:02:00,
2013-02-06 02:11:00,39.0,30.0,-100.00,NNW,329,3.0,11.0,71,0.00,,,0.00,0.000000,,2013-02-06 07:11:00,
2013-02-06 02:32:00,38.0,29.0,-100.00,NW,322,6.0,14.0,70,0.00,,,0.00,0.000000,,2013-02-06 07:32:00,
2013-02-06 02:42:00,38.0,29.0,-100.00,NW,322,6.0,14.0,70,0.00,,,0.00,0.000000,,2013-02-06 07:42:00,
2013-02-06 02:52:00,38.0,29.0,-100.00,NW,322,6.0,14.0,70,0.00,,,0.00,0.000000,,2013-02-06 07:52:00,
2013-02-06 03:01:00,38.0,29.0,-100.00,NW,322,6.0,14.0,70,0.00,,,0.00,0.000000,,2013-02-06 08:01:00,
2013-02-06 03:11:00,38.0,29.0,-100.00,NW,322,6.0,14.0,70,0.00,,,0.00,0.000000,,2013-02-06 08:11:00,
2013-02-06 03:42:00,37.0,27.0,-100.00,NW,324,6.0,13.0,68,0.00,,,0.00,0.000000,,2013-02-06 08:42:00,
2013-02-06 03:53:00,37.0,27.0,-100.00,NW,324,6.0,13.0,68,0.00,,,0.00,0.000000,,2013-02-06 08:53:00,
2013-02-06 04:02:00,37.0,27.0,-100.00,NW,324,6.0,13.0,68,0.00,,,0.00,0.000000,,2013-02-06 09:02:00,
2013-02-06 04:11:00,37.0,27.0,-100.00,NW,324,6.0,13.0,68,0.00,,,0.00,0.000000,,2013-02-06 09:11:00,
2013-02-06 04:32:00,36.0,27.0,-100.00,NNW,328,6.0,16.0,70,0.00,,,0.00,0.000000,,2013-02-06 09:32:00,
2013-02-06 04:42:00,36.0,27.0,-100.00,NNW,328,6.0,16.0,70,0.00,,,0.00,0.000000,,2013-02-06 09:42:00,
2013-02-06 04:52:00,36.0,27.0,-100.00,NNW,328,6.0,16.0,70,0.00,,,0.00,0.000000,,2013-02-06 09:52:00,
2013-02-06 05:01:00,36.0,27.0,-100.00,NNW,328,6.0,16.0,70,0.00,,,0.00,0.000000,,2013-02-06 10:01:00,
2013-02-06 05:11:00,36.0,27.0,-100.00,NNW,328,6.0,16.0,70,0.00,,,0.00,0.000000,,2013-02-06 10:11:00,
2013-02-06 05:42:00,34.0,27.0,-100.00,NNW,336,5.0,12.0,74,0.00,,,0.00,0.000000,,2013-02-06 10:42:00,
2013-02-06 05:52:00,34.0,27.0,-100.00,NNW,336,5.0,12.0,74,0.00,,,0.00,0.000000,,2013-02-06 10:52:00,
2013-02-06 06:02:00,34.0,27.0,-100.00,NNW,336,5.0,12.0,74,0.00,,,0.00,0.000000,,2013-02-06 11:02:00,
2013-02-06 06:11:00,34.0,27.0,-100.00,NNW,336,5.0,12.0,74,0.00,,,0.00,0.000000,,2013-02-06 11:11:00,
2013-02-06 06:33:00,33.0,27.0,-100.00,NNW,330,5.0,12.0,78,0.00,,,0.00,0.000000,,2013-02-06 11:33:00,
2013-02-06 06:42:00,33.0,27.0,-100.00,NNW,330,5.0,12.0,78,0.00,,,0.00,0.000000,,2013-02-06 11:42:00,
2013-02-06 06:53:00,33.0,27.0,-100.00,NNW,330,5.0,12.0,78,0.00,,,0.00,0.000000,,2013-02-06 11:53:00,
2013-02-06 07:02:00,33.0,27.0,-100.00,NNW,330,5.0,12.0,78,0.00,,,0.00,0.000000,,2013-02-06 12:02:00,
2013-02-06 07:12:00,33.0,27.0,-100.00,NNW,330,5.0,12.0,78,0.00,,,0.00,0.000000,,2013-02-06 12:12:00,
2013-02-06 07:32:00,32.0,27.0,-100.00,NW,325,5.0,10.0,80,0.00,,,0.00,0.000000,,2013-02-06 12:32:00,
2013-02-06 07:42:00,32.0,27.0,-100.00,NW,325,5.0,10.0,80,0.00,,,0.00,0.000000,,2013-02-06 12:42:00,
2013-02-06 07:52:00,32.0,27.0,-100.00,NW,325,5.0,10.0,80,0.00,,,0.00,0.000000,,2013-02-06 12:52:00,
2013-02-06 08:02:00,32.0,27.0,-100.00,NW,325,5.0,10.0,80,0.00,,,0.00,0.000000,,2013-02-06 13:02:00,
2013-02-06 08:12:00,32.0,27.0,-100.00,NW,325,5.0,10.0,80,0.00,,,0.00,0.000000,,2013-02-06 13:12:00,
2013-02-06 08:42:00,32.0,26.0,-100.00,NNW,339,4.0,11.0,77,0.00,,,0.00,16.000000,,2013-02-06 13:42:00,
2013-02-06 08:52:00,32.0,26.0,-100.00,NNW,339,4.0,11.0,77,0.00,,,0.00,16.000000,,2013-02-06 13:52:00,
2013-02-06 09:02:00,32.0,26.0,-100.00,NNW,339,4.0,11.0,77,0.00,,,0.00,16.000000,,2013-02-06 14:02:00,
2013-02-06 09:11:00,32.0,26.0,-100.00,NNW,339,4.0,11.0,77,0.00,,,0.00,16.000000,,2013-02-06 14:11:00,
2013-02-06 09:42:00,34.0,26.0,-100.00,NW,316,3.0,10.0,72,0.00,,,0.00,89.000000,,2013-02-06 14:42:00,
2013-02-06 09:52:00,34.0,26.0,-100.00,NW,316,3.0,10.0,72,0.00,,,0.00,89.000000,,2013-02-06 14:52:00,
2013-02-06 10:02:00,34.0,26.0,-100.00,NW,316,3.0,10.0,72,0.00,,,0.00,89.000000,,2013-02-06 15:02:00,
2013-02-06 10:11:00,34.0,26.0,-100.00,NW,316,3.0,10.0,72,0.00,,,0.00,89.000000,,2013-02-06 15:11:00,
2013-02-06 10:32:00,37.0,27.0,-100.00,WNW,292,4.0,8.0,66,0.00,,,0.00,235.000000,,2013-02-06 15:32:00,
2013-02-06 10:42:00,37.0,27.0,-100.00,WNW,292,4.0,8.0,66,0.00,,,0.00,235.000000,,2013-02-06 15:42:00,
2013-02-06 10:52:00,37.0,27.0,-100.00,WNW,292,4.0,8.0,66,0.00,,,0.00,235.000000,,2013-02-06 15:52:00,
2013-02-06 11:01:00,37.0,27.0,-100.00,WNW,292,4.0,8.0,66,0.00,,,0.00,235.000000,,2013-02-06 16:01:00,
2013-02-06 11:11:00,37.0,27.0,-100.00,WNW,292,4.0,8.0,66,0.00,,,0.00,235.000000,,2013-02-06 16:11:00,
2013-02-06 11:32:00,40.0,25.0,-100.00,WNW,292,5.0,11.0,55,0.00,,,0.00,474.000000,,2013-02-06 16:32:00,
2013-02-06 11:42:00,40.0,25.0,-100.00,WNW,292,5.0,11.0,55,0.00,,,0.00,474.000000,,2013-02-06 16:42:00,
2013-02-06 11:52:00,40.0,25.0,-100.00,WNW,292,5.0,11.0,55,0.00,,,0.00,474.000000,,2013-02-06 16:52:00,
2013-02-06 12:02:00,40.0,25.0,-100.00,WNW,292,5.0,11.0,55,0.00,,,0.00,474.000000,,2013-02-06 17:02:00,
2013-02-06 12:12:00,40.0,25.0,-100.00,WNW,292,5.0,11.0,55,0.00,,,0.00,474.000000,,2013-02-06 17:12:00,
2013-02-06 12:32:00,42.0,25.0,-100.00,NW,308,5.0,11.0,50,0.00,,,0.00,546.000000,,2013-02-06 17:32:00,
2013-02-06 12:42:00,42.0,25.0,-100.00,NW,308,5.0,11.0,50,0.00,,,0.00,546.000000,,2013-02-06 17:42:00,
2013-02-06 12:52:00,42.0,25.0,-100.00,NW,308,5.0,11.0,50,0.00,,,0.00,546.000000,,2013-02-06 17:52:00,
2013-02-06 13:02:00,42.0,25.0,-100.00,NW,308,5.0,11.0,50,0.00,,,0.00,546.000000,,2013-02-06 18:02:00,
2013-02-06 13:12:00,42.0,25.0,-100.00,NW,308,5.0,11.0,50,0.00,,,0.00,546.000000,,2013-02-06 18:12:00,
2013-02-06 13:42:00,45.0,26.0,-100.00,SW,232,3.0,9.0,47,0.00,,,0.00,561.000000,,2013-02-06 18:42:00,
2013-02-06 13:52:00,45.0,26.0,-100.00,SW,232,3.0,9.0,47,0.00,,,0.00,561.000000,,2013-02-06 18:52:00,
2013-02-06 14:02:00,45.0,26.0,-100.00,SW,232,3.0,9.0,47,0.00,,,0.00,561.000000,,2013-02-06 19:02:00,
2013-02-06 14:11:00,45.0,26.0,-100.00,SW,232,3.0,9.0,47,0.00,,,0.00,561.000000,,2013-02-06 19:11:00,
2013-02-06 14:42:00,46.0,24.0,-100.00,WSW,247,4.0,9.0,41,0.00,,,0.00,523.000000,,2013-02-06 19:42:00,
2013-02-06 14:52:00,46.0,24.0,-100.00,WSW,247,4.0,9.0,41,0.00,,,0.00,523.000000,,2013-02-06 19:52:00,
2013-02-06 15:01:00,46.0,24.0,-100.00,WSW,247,4.0,9.0,41,0.00,,,0.00,523.000000,,2013-02-06 20:01:00,
2013-02-06 15:11:00,46.0,24.0,-100.00,WSW,247,4.0,9.0,41,0.00,,,0.00,523.000000,,2013-02-06 20:11:00,
2013-02-06 15:42:00,46.0,21.0,-100.00,NNW,341,5.0,10.0,37,0.00,,,0.00,433.000000,,2013-02-06 20:42:00,
2013-02-06 15:52:00,46.0,21.0,-100.00,NNW,341,5.0,10.0,37,0.00,,,0.00,433.000000,,2013-02-06 20:52:00,
2013-02-06 16:02:00,46.0,21.0,-100.00,NNW,341,5.0,10.0,37,0.00,,,0.00,433.000000,,2013-02-06 21:02:00,
2013-02-06 16:11:00,46.0,21.0,-100.00,NNW,341,5.0,10.0,37,0.00,,,0.00,433.000000,,2013-02-06 21:11:00,
2013-02-06 16:32:00,46.0,21.0,-100.00,WNW,289,5.0,11.0,37,0.00,,,0.00,305.000000,,2013-02-06 21:32:00,
2013-02-06 16:42:00,46.0,21.0,-100.00,WNW,289,5.0,11.0,37,0.00,,,0.00,305.000000,,2013-02-06 21:42:00,
2013-02-06 16:52:00,46.0,21.0,-100.00,WNW,289,5.0,11.0,37,0.00,,,0.00,305.000000,,2013-02-06 21:52:00,
2013-02-06 17:01:00,46.0,21.0,-100.00,WNW,289,5.0,11.0,37,0.00,,,0.00,305.000000,,2013-02-06 22:01:00,
2013-02-06 17:11:00,46.0,21.0,-100.00,WNW,289,5.0,11.0,37,0.00,,,0.00,305.000000,,2013-02-06 22:11:00,
2013-02-06 17:42:00,44.0,19.0,-100.00,NNW,337,3.0,11.0,37,0.00,,,0.00,148.000000,,2013-02-06 22:42:00,
2013-02-06 17:52:00,44.0,19.0,-100.00,NNW,337,3.0,11.0,37,0.00,,,0.00,148.000000,,2013-02-06 22:52:00,
2013-02-06 18:01:00,44.0,19.0,-100.00,NNW,337,3.0,11.0,37,0.00,,,0.00,148.000000,,2013-02-06 23:01:00,
2013-02-06 18:11:00,44.0,19.0,-100.00,NNW,337,3.0,11.0,37,0.00,,,0.00,148.000000,,2013-02-06 23:11:00,
2013-02-06 18:32:00,40.0,19.0,-100.00,North,356,2.0,5.0,42,0.00,,,0.00,8.000000,,2013-02-06 23:32:00,
2013-02-06 18:42:00,40.0,19.0,-100.00,North,356,2.0,5.0,42,0.00,,,0.00,8.000000,,2013-02-06 23:42:00,
2013-02-06 18:52:00,40.0,19.0,-100.00,North,356,2.0,5.0,42,0.00,,,0.00,8.000000,,2013-02-06 23:52:00,
2013-02-06 19:02:00,40.0,19.0,-100.00,North,356,2.0,5.0,42,0.00,,,0.00,8.000000,,2013-02-07 00:02:00,
2013-02-06 19:11:00,40.0,19.0,-100.00,North,356,2.0,5.0,42,0.00,,,0.00,8.000000,,2013-02-07 00:11:00,
2013-02-06 19:42:00,38.0,20.0,-100.00,NNW,341,2.0,5.0,47,0.00,,,0.00,0.000000,,2013-02-07 00:42:00,
2013-02-06 19:52:00,38.0,20.0,-100.00,NNW,341,2.0,5.0,47,0.00,,,0.00,0.000000,,2013-02-07 00:52:00,
2013-02-06 20:01:00,38.0,20.0,-100.00,NNW,341,2.0,5.0,47,0.00,,,0.00,0.000000,,2013-02-07 01:01:00,
2013-02-06 20:11:00,38.0,20.0,-100.00,NNW,341,2.0,5.0,47,0.00,,,0.00,0.000000,,2013-02-07 01:11:00,
2013-02-06 20:42:00,35.0,24.0,-100.00,NE,46,2.0,5.0,65,0.00,,,0.00,0.000000,,2013-02-07 01:42:00,
2013-02-06 20:52:00,35.0,24.0,-100.00,NE,46,2.0,5.0,65,0.00,,,0.00,0.000000,,2013-02-07 01:52:00,
2013-02-06 21:02:00,35.0,24.0,-100.00,NE,46,2.0,5.0,65,0.00,,,0.00,0.000000,,2013-02-07 02:02:00,
2013-02-06 21:12:00,35.0,24.0,-100.00,NE,46,2.0,5.0,65,0.00,,,0.00,0.000000,,2013-02-07 02:12:00,
2013-02-06 22:02:00,35.0,25.0,-100.00,ENE,72,2.0,4.0,66,0.00,,,0.00,0.000000,,2013-02-07 03:02:00,
2013-02-06 22:11:00,35.0,25.0,-100.00,ENE,72,2.0,4.0,66,0.00,,,0.00,0.000000,,2013-02-07 03:11:00,
2013-02-06 22:32:00,35.0,25.0,-100.00,East,100,2.0,5.0,66,0.00,,,0.00,0.000000,,2013-02-07 03:32:00,
2013-02-06 22:42:00,35.0,25.0,-100.00,East,100,2.0,5.0,66,0.00,,,0.00,0.000000,,2013-02-07 03:42:00,
2013-02-06 22:52:00,35.0,25.0,-100.00,East,100,2.0,5.0,66,0.00,,,0.00,0.000000,,2013-02-07 03:52:00,
2013-02-06 23:01:00,35.0,25.0,-100.00,East,100,2.0,5.0,66,0.00,,,0.00,0.000000,,2013-02-07 04:01:00,
2013-02-06 23:11:00,35.0,25.0,-100.00,East,100,2.0,5.0,66,0.00,,,0.00,0.000000,,2013-02-07 04:11:00,
2013-02-06 23:32:00,33.0,23.0,-100.00,ESE,108,0.0,4.0,66,0.00,,,0.00,0.000000,,2013-02-07 04:32:00,
2013-02-06 23:42:00,33.0,23.0,-100.00,ESE,108,0.0,4.0,66,0.00,,,0.00,0.000000,,2013-02-07 04:42:00,
2013-02-06 23:53:00,33.0,23.0,-100.00,ESE,108,0.0,4.0,66,0.00,,,0.00,0.000000,,2013-02-07 04:53:00,